Aviation Digital Data Service (ADDS)

Output produced by METARs form (1521 UTC 20 March 2019)
found at http://www.aviationweather.gov/metar/data/
 
Forecast for: EGNS (ISLE OF MAN/RONA, GB)
Text: TAF EGNS 201400Z 2015/2022 22014KT 0600 FG BKN000
Forecast period: 1500 to 2200 UTC 20 March 2019
Forecast type: FROM: standard forecast or significant change
Winds: from the SW (220 degrees) at 16 MPH (14 knots; 7.2 m/s)
Visibility: 0.37 miles (0.60 km)
Ceiling: 0 feet AGL
Clouds: broken clouds at 0 feet AGL
Weather: FG  (fog)
Text: TEMPO 2015/2022 1500 BR FEW000 BKN003
Forecast period: 1500 to 2200 UTC 20 March 2019
Forecast type: TEMPORARY: The following changes expected for less than half the time period
Visibility: 0.93 miles (1.50 km)
Ceiling: 300 feet AGL
Clouds: few clouds at 0 feet AGL
broken clouds at 300 feet AGL
Weather: BR  (mist)
Text: PROB30
Forecast period: 1500 to 2200 UTC 20 March 2019
Forecast type: TEMPORARY: The following changes expected for less than half the time period
Visibility: 3 miles (5 km)
Ceiling: 500 feet AGL
Clouds: broken clouds at 500 feet AGL
Weather: HZ  (haze)